sensor_id;sensor_type;location;lat;lon;timestamp;temperature;humidity
55135;DHT22;41031;44.750;11.308;2022-07-06T00:02:13;25.90;75.70
55135;DHT22;41031;44.750;11.308;2022-07-06T00:04:41;25.90;76.20
55135;DHT22;41031;44.750;11.308;2022-07-06T00:07:08;25.80;76.30
55135;DHT22;41031;44.750;11.308;2022-07-06T00:09:36;25.90;76.50
55135;DHT22;41031;44.750;11.308;2022-07-06T00:12:03;25.80;76.40
55135;DHT22;41031;44.750;11.308;2022-07-06T00:14:31;25.80;76.30
55135;DHT22;41031;44.750;11.308;2022-07-06T00:17:02;25.80;76.30
55135;DHT22;41031;44.750;11.308;2022-07-06T00:19:29;25.70;76.00
55135;DHT22;41031;44.750;11.308;2022-07-06T00:21:58;25.70;75.70
55135;DHT22;41031;44.750;11.308;2022-07-06T00:24:28;25.70;75.30
55135;DHT22;41031;44.750;11.308;2022-07-06T00:26:56;25.70;74.90
55135;DHT22;41031;44.750;11.308;2022-07-06T00:29:24;25.70;73.90
55135;DHT22;41031;44.750;11.308;2022-07-06T00:31:51;25.70;73.20
55135;DHT22;41031;44.750;11.308;2022-07-06T00:34:19;25.70;73.50
55135;DHT22;41031;44.750;11.308;2022-07-06T00:36:47;25.70;71.60
55135;DHT22;41031;44.750;11.308;2022-07-06T00:39:14;25.70;71.20
55135;DHT22;41031;44.750;11.308;2022-07-06T00:41:42;25.80;70.00
55135;DHT22;41031;44.750;11.308;2022-07-06T00:44:11;25.80;69.50
55135;DHT22;41031;44.750;11.308;2022-07-06T00:46:38;25.80;69.50
55135;DHT22;41031;44.750;11.308;2022-07-06T00:49:06;25.80;68.60
55135;DHT22;41031;44.750;11.308;2022-07-06T00:51:55;25.80;68.70
55135;DHT22;41031;44.750;11.308;2022-07-06T00:54:23;25.80;68.40
55135;DHT22;41031;44.750;11.308;2022-07-06T00:56:51;25.80;68.40
55135;DHT22;41031;44.750;11.308;2022-07-06T00:59:19;25.80;68.30
55135;DHT22;41031;44.750;11.308;2022-07-06T01:01:47;25.70;67.90
55135;DHT22;41031;44.750;11.308;2022-07-06T01:04:14;25.70;67.90
55135;DHT22;41031;44.750;11.308;2022-07-06T01:06:44;25.60;67.60
55135;DHT22;41031;44.750;11.308;2022-07-06T01:09:17;25.60;67.80
55135;DHT22;41031;44.750;11.308;2022-07-06T01:11:48;25.50;67.50
55135;DHT22;41031;44.750;11.308;2022-07-06T01:14:16;25.50;67.30
55135;DHT22;41031;44.750;11.308;2022-07-06T01:16:44;25.50;67.20
55135;DHT22;41031;44.750;11.308;2022-07-06T01:19:12;25.50;67.10
55135;DHT22;41031;44.750;11.308;2022-07-06T01:21:39;25.40;66.90
55135;DHT22;41031;44.750;11.308;2022-07-06T01:24:10;25.40;66.90
55135;DHT22;41031;44.750;11.308;2022-07-06T01:26:39;25.40;66.90
55135;DHT22;41031;44.750;11.308;2022-07-06T01:29:06;25.40;66.90
55135;DHT22;41031;44.750;11.308;2022-07-06T01:31:34;25.30;66.60
55135;DHT22;41031;44.750;11.308;2022-07-06T01:34:02;25.30;66.50
55135;DHT22;41031;44.750;11.308;2022-07-06T01:36:29;25.30;66.80
55135;DHT22;41031;44.750;11.308;2022-07-06T01:38:56;25.20;66.70
55135;DHT22;41031;44.750;11.308;2022-07-06T01:41:25;25.20;66.70
55135;DHT22;41031;44.750;11.308;2022-07-06T01:43:54;25.20;66.70
55135;DHT22;41031;44.750;11.308;2022-07-06T01:46:21;25.20;66.70
55135;DHT22;41031;44.750;11.308;2022-07-06T01:48:49;25.20;66.70
55135;DHT22;41031;44.750;11.308;2022-07-06T01:51:16;25.20;66.70
55135;DHT22;41031;44.750;11.308;2022-07-06T01:53:45;25.10;66.40
55135;DHT22;41031;44.750;11.308;2022-07-06T01:56:14;25.10;66.30
55135;DHT22;41031;44.750;11.308;2022-07-06T01:58:45;25.00;66.20
55135;DHT22;41031;44.750;11.308;2022-07-06T02:01:17;25.00;66.00
55135;DHT22;41031;44.750;11.308;2022-07-06T02:03:45;25.00;66.00
55135;DHT22;41031;44.750;11.308;2022-07-06T02:06:13;25.00;66.10
55135;DHT22;41031;44.750;11.308;2022-07-06T02:08:41;25.00;66.30
55135;DHT22;41031;44.750;11.308;2022-07-06T02:11:10;25.00;66.50
55135;DHT22;41031;44.750;11.308;2022-07-06T02:13:39;25.00;66.50
55135;DHT22;41031;44.750;11.308;2022-07-06T02:16:10;25.00;66.70
55135;DHT22;41031;44.750;11.308;2022-07-06T02:18:38;25.00;66.70
55135;DHT22;41031;44.750;11.308;2022-07-06T02:21:08;25.00;66.60
55135;DHT22;41031;44.750;11.308;2022-07-06T02:23:36;25.00;66.70
55135;DHT22;41031;44.750;11.308;2022-07-06T02:26:03;24.90;66.70
55135;DHT22;41031;44.750;11.308;2022-07-06T02:28:32;24.90;66.80
55135;DHT22;41031;44.750;11.308;2022-07-06T02:31:02;24.90;67.00
55135;DHT22;41031;44.750;11.308;2022-07-06T02:33:30;24.90;67.20
55135;DHT22;41031;44.750;11.308;2022-07-06T02:36:00;24.90;67.50
55135;DHT22;41031;44.750;11.308;2022-07-06T02:38:28;24.90;67.70
55135;DHT22;41031;44.750;11.308;2022-07-06T02:40:59;24.90;67.80
55135;DHT22;41031;44.750;11.308;2022-07-06T02:43:27;24.80;67.70
55135;DHT22;41031;44.750;11.308;2022-07-06T02:45:55;24.80;67.80
55135;DHT22;41031;44.750;11.308;2022-07-06T02:48:22;24.80;67.80
55135;DHT22;41031;44.750;11.308;2022-07-06T02:50:51;24.80;67.70
55135;DHT22;41031;44.750;11.308;2022-07-06T02:53:19;24.80;67.60
55135;DHT22;41031;44.750;11.308;2022-07-06T02:55:51;24.70;67.60
55135;DHT22;41031;44.750;11.308;2022-07-06T02:58:20;24.70;67.50
55135;DHT22;41031;44.750;11.308;2022-07-06T03:00:51;24.60;67.20
55135;DHT22;41031;44.750;11.308;2022-07-06T03:03:20;24.60;67.20
55135;DHT22;41031;44.750;11.308;2022-07-06T03:05:48;24.60;67.00
55135;DHT22;41031;44.750;11.308;2022-07-06T03:08:18;24.50;67.20
55135;DHT22;41031;44.750;11.308;2022-07-06T03:10:46;24.50;67.10
55135;DHT22;41031;44.750;11.308;2022-07-06T03:13:13;24.50;67.10
55135;DHT22;41031;44.750;11.308;2022-07-06T03:15:41;24.40;66.90
55135;DHT22;41031;44.750;11.308;2022-07-06T03:18:08;24.40;66.50
55135;DHT22;41031;44.750;11.308;2022-07-06T03:20:38;24.40;65.70
55135;DHT22;41031;44.750;11.308;2022-07-06T03:23:09;24.30;65.70
55135;DHT22;41031;44.750;11.308;2022-07-06T03:25:36;24.30;65.70
55135;DHT22;41031;44.750;11.308;2022-07-06T03:28:04;24.30;65.90
55135;DHT22;41031;44.750;11.308;2022-07-06T03:30:31;24.30;65.80
55135;DHT22;41031;44.750;11.308;2022-07-06T03:32:59;24.30;65.70
55135;DHT22;41031;44.750;11.308;2022-07-06T03:35:28;24.20;65.40
55135;DHT22;41031;44.750;11.308;2022-07-06T03:37:57;24.20;65.50
55135;DHT22;41031;44.750;11.308;2022-07-06T03:40:28;24.10;65.80
55135;DHT22;41031;44.750;11.308;2022-07-06T03:42:57;24.10;66.10
55135;DHT22;41031;44.750;11.308;2022-07-06T03:45:26;24.00;66.30
55135;DHT22;41031;44.750;11.308;2022-07-06T03:47:55;23.90;66.40
55135;DHT22;41031;44.750;11.308;2022-07-06T03:50:23;23.90;66.70
55135;DHT22;41031;44.750;11.308;2022-07-06T03:52:52;23.80;66.80
55135;DHT22;41031;44.750;11.308;2022-07-06T03:55:20;23.80;67.00
55135;DHT22;41031;44.750;11.308;2022-07-06T03:57:53;23.70;67.10
55135;DHT22;41031;44.750;11.308;2022-07-06T04:00:27;23.70;67.30
55135;DHT22;41031;44.750;11.308;2022-07-06T04:03:01;23.70;67.60
55135;DHT22;41031;44.750;11.308;2022-07-06T04:05:33;23.60;67.90
55135;DHT22;41031;44.750;11.308;2022-07-06T04:08:02;23.60;68.20
55135;DHT22;41031;44.750;11.308;2022-07-06T04:10:39;23.50;68.50
55135;DHT22;41031;44.750;11.308;2022-07-06T04:13:06;23.50;68.60
55135;DHT22;41031;44.750;11.308;2022-07-06T04:15:34;23.50;69.00
55135;DHT22;41031;44.750;11.308;2022-07-06T04:18:02;23.50;69.10
55135;DHT22;41031;44.750;11.308;2022-07-06T04:20:37;23.50;69.20
55135;DHT22;41031;44.750;11.308;2022-07-06T04:23:04;23.50;69.30
55135;DHT22;41031;44.750;11.308;2022-07-06T04:25:34;23.50;69.20
55135;DHT22;41031;44.750;11.308;2022-07-06T04:28:02;23.50;69.20
55135;DHT22;41031;44.750;11.308;2022-07-06T04:30:35;23.50;69.50
55135;DHT22;41031;44.750;11.308;2022-07-06T04:33:05;23.50;69.60
55135;DHT22;41031;44.750;11.308;2022-07-06T04:35:34;23.50;69.60
55135;DHT22;41031;44.750;11.308;2022-07-06T04:38:02;23.50;69.70
55135;DHT22;41031;44.750;11.308;2022-07-06T04:40:31;23.50;69.90
55135;DHT22;41031;44.750;11.308;2022-07-06T04:43:05;23.50;70.00
55135;DHT22;41031;44.750;11.308;2022-07-06T04:45:34;23.50;70.00
55135;DHT22;41031;44.750;11.308;2022-07-06T04:48:02;23.60;70.00
55135;DHT22;41031;44.750;11.308;2022-07-06T04:50:34;23.60;70.00
55135;DHT22;41031;44.750;11.308;2022-07-06T04:53:10;23.60;70.00
55135;DHT22;41031;44.750;11.308;2022-07-06T04:55:38;23.60;70.10
55135;DHT22;41031;44.750;11.308;2022-07-06T04:58:07;23.70;70.20
55135;DHT22;41031;44.750;11.308;2022-07-06T05:00:36;23.70;70.00
55135;DHT22;41031;44.750;11.308;2022-07-06T05:03:05;23.80;70.00
55135;DHT22;41031;44.750;11.308;2022-07-06T05:05:34;23.90;70.00
55135;DHT22;41031;44.750;11.308;2022-07-06T05:08:01;23.90;70.00
55135;DHT22;41031;44.750;11.308;2022-07-06T05:10:33;23.90;69.80
55135;DHT22;41031;44.750;11.308;2022-07-06T05:13:00;24.00;69.70
55135;DHT22;41031;44.750;11.308;2022-07-06T05:15:28;24.00;69.60
55135;DHT22;41031;44.750;11.308;2022-07-06T05:17:56;24.10;69.80
55135;DHT22;41031;44.750;11.308;2022-07-06T05:20:24;24.20;69.60
55135;DHT22;41031;44.750;11.308;2022-07-06T05:22:53;24.30;69.10
55135;DHT22;41031;44.750;11.308;2022-07-06T05:25:25;24.50;68.70
55135;DHT22;41031;44.750;11.308;2022-07-06T05:27:53;24.60;67.90
55135;DHT22;41031;44.750;11.308;2022-07-06T05:30:21;24.60;67.70
55135;DHT22;41031;44.750;11.308;2022-07-06T05:32:51;24.70;67.10
55135;DHT22;41031;44.750;11.308;2022-07-06T05:35:19;24.70;67.30
55135;DHT22;41031;44.750;11.308;2022-07-06T05:38:07;24.60;67.50
55135;DHT22;41031;44.750;11.308;2022-07-06T05:40:36;24.70;67.60
55135;DHT22;41031;44.750;11.308;2022-07-06T05:43:04;24.70;67.70
55135;DHT22;41031;44.750;11.308;2022-07-06T05:45:33;24.70;67.80
55135;DHT22;41031;44.750;11.308;2022-07-06T05:48:01;24.70;68.00
55135;DHT22;41031;44.750;11.308;2022-07-06T05:50:50;24.70;68.30
55135;DHT22;41031;44.750;11.308;2022-07-06T05:53:17;24.80;68.40
55135;DHT22;41031;44.750;11.308;2022-07-06T05:55:50;24.90;68.20
55135;DHT22;41031;44.750;11.308;2022-07-06T05:58:18;25.00;68.00
55135;DHT22;41031;44.750;11.308;2022-07-06T06:00:46;25.10;67.40
55135;DHT22;41031;44.750;11.308;2022-07-06T06:03:17;25.30;66.80
55135;DHT22;41031;44.750;11.308;2022-07-06T06:05:47;25.40;66.80
55135;DHT22;41031;44.750;11.308;2022-07-06T06:08:19;25.50;66.80
55135;DHT22;41031;44.750;11.308;2022-07-06T06:10:49;25.60;66.70
55135;DHT22;41031;44.750;11.308;2022-07-06T06:13:19;25.60;66.70
55135;DHT22;41031;44.750;11.308;2022-07-06T06:15:46;25.70;66.90
55135;DHT22;41031;44.750;11.308;2022-07-06T06:18:15;25.80;67.10
55135;DHT22;41031;44.750;11.308;2022-07-06T06:20:50;25.90;66.10
55135;DHT22;41031;44.750;11.308;2022-07-06T06:23:17;26.00;66.30
55135;DHT22;41031;44.750;11.308;2022-07-06T06:25:45;26.00;66.20
55135;DHT22;41031;44.750;11.308;2022-07-06T06:28:13;26.10;66.50
55135;DHT22;41031;44.750;11.308;2022-07-06T06:30:40;26.10;66.30
55135;DHT22;41031;44.750;11.308;2022-07-06T06:33:17;26.00;66.50
55135;DHT22;41031;44.750;11.308;2022-07-06T06:35:48;26.10;66.70
55135;DHT22;41031;44.750;11.308;2022-07-06T06:38:22;26.10;66.80
55135;DHT22;41031;44.750;11.308;2022-07-06T06:41:02;26.10;66.90
55135;DHT22;41031;44.750;11.308;2022-07-06T06:43:40;26.10;67.50
55135;DHT22;41031;44.750;11.308;2022-07-06T06:46:13;26.20;67.80
55135;DHT22;41031;44.750;11.308;2022-07-06T06:48:40;26.40;68.10
55135;DHT22;41031;44.750;11.308;2022-07-06T06:51:08;26.60;68.80
55135;DHT22;41031;44.750;11.308;2022-07-06T06:53:40;26.90;67.60
55135;DHT22;41031;44.750;11.308;2022-07-06T06:56:07;27.20;65.80
55135;DHT22;41031;44.750;11.308;2022-07-06T06:58:36;27.30;64.60
55135;DHT22;41031;44.750;11.308;2022-07-06T07:01:25;27.40;63.40
55135;DHT22;41031;44.750;11.308;2022-07-06T07:03:53;27.40;63.40
55135;DHT22;41031;44.750;11.308;2022-07-06T07:06:22;27.30;63.40
55135;DHT22;41031;44.750;11.308;2022-07-06T07:08:52;27.30;63.70
55135;DHT22;41031;44.750;11.308;2022-07-06T07:11:19;27.30;63.90
55135;DHT22;41031;44.750;11.308;2022-07-06T07:13:46;27.40;64.20
55135;DHT22;41031;44.750;11.308;2022-07-06T07:16:14;27.60;63.70
55135;DHT22;41031;44.750;11.308;2022-07-06T07:18:41;27.60;63.60
55135;DHT22;41031;44.750;11.308;2022-07-06T07:21:09;27.70;63.70
55135;DHT22;41031;44.750;11.308;2022-07-06T07:23:36;27.90;63.80
55135;DHT22;41031;44.750;11.308;2022-07-06T07:26:03;28.10;62.70
55135;DHT22;41031;44.750;11.308;2022-07-06T07:28:31;28.20;62.10
55135;DHT22;41031;44.750;11.308;2022-07-06T07:30:58;28.30;61.90
55135;DHT22;41031;44.750;11.308;2022-07-06T07:33:25;28.20;60.90
55135;DHT22;41031;44.750;11.308;2022-07-06T07:35:55;28.20;61.70
55135;DHT22;41031;44.750;11.308;2022-07-06T07:38:28;28.20;61.80
55135;DHT22;41031;44.750;11.308;2022-07-06T07:40:58;28.30;61.50
55135;DHT22;41031;44.750;11.308;2022-07-06T07:43:27;28.50;61.00
55135;DHT22;41031;44.750;11.308;2022-07-06T07:45:54;28.70;60.90
55135;DHT22;41031;44.750;11.308;2022-07-06T07:48:21;28.90;59.40
55135;DHT22;41031;44.750;11.308;2022-07-06T07:50:49;28.90;59.70
55135;DHT22;41031;44.750;11.308;2022-07-06T07:53:17;29.10;59.90
55135;DHT22;41031;44.750;11.308;2022-07-06T07:55:44;29.10;57.90
55135;DHT22;41031;44.750;11.308;2022-07-06T07:58:11;29.10;59.00
55135;DHT22;41031;44.750;11.308;2022-07-06T08:00:39;29.20;59.10
55135;DHT22;41031;44.750;11.308;2022-07-06T08:03:06;29.40;58.70
55135;DHT22;41031;44.750;11.308;2022-07-06T08:05:33;29.40;58.40
55135;DHT22;41031;44.750;11.308;2022-07-06T08:08:01;29.40;58.30
55135;DHT22;41031;44.750;11.308;2022-07-06T08:10:28;29.30;59.20
55135;DHT22;41031;44.750;11.308;2022-07-06T08:12:56;29.30;58.00
55135;DHT22;41031;44.750;11.308;2022-07-06T08:15:24;29.40;58.40
55135;DHT22;41031;44.750;11.308;2022-07-06T08:17:52;29.50;59.20
55135;DHT22;41031;44.750;11.308;2022-07-06T08:20:19;29.60;58.60
55135;DHT22;41031;44.750;11.308;2022-07-06T08:22:46;29.70;58.30
55135;DHT22;41031;44.750;11.308;2022-07-06T08:25:14;29.80;57.00
55135;DHT22;41031;44.750;11.308;2022-07-06T08:27:41;29.90;56.70
55135;DHT22;41031;44.750;11.308;2022-07-06T08:30:09;29.90;56.70
55135;DHT22;41031;44.750;11.308;2022-07-06T08:32:41;30.00;56.00
55135;DHT22;41031;44.750;11.308;2022-07-06T08:35:29;29.90;56.10
55135;DHT22;41031;44.750;11.308;2022-07-06T08:37:59;29.90;56.30
55135;DHT22;41031;44.750;11.308;2022-07-06T08:40:35;30.10;56.30
55135;DHT22;41031;44.750;11.308;2022-07-06T08:43:03;30.20;56.60
55135;DHT22;41031;44.750;11.308;2022-07-06T08:45:34;30.30;56.90
55135;DHT22;41031;44.750;11.308;2022-07-06T08:48:06;30.60;55.80
55135;DHT22;41031;44.750;11.308;2022-07-06T08:50:33;30.60;55.00
55135;DHT22;41031;44.750;11.308;2022-07-06T08:53:01;30.60;55.10
55135;DHT22;41031;44.750;11.308;2022-07-06T08:55:29;30.60;56.00
55135;DHT22;41031;44.750;11.308;2022-07-06T08:57:57;30.60;56.20
55135;DHT22;41031;44.750;11.308;2022-07-06T09:00:25;30.80;56.10
55135;DHT22;41031;44.750;11.308;2022-07-06T09:02:53;31.10;56.00
55135;DHT22;41031;44.750;11.308;2022-07-06T09:05:24;31.40;55.20
55135;DHT22;41031;44.750;11.308;2022-07-06T09:07:52;31.60;53.50
55135;DHT22;41031;44.750;11.308;2022-07-06T09:10:26;31.70;54.10
55135;DHT22;41031;44.750;11.308;2022-07-06T09:13:02;31.80;53.20
55135;DHT22;41031;44.750;11.308;2022-07-06T09:15:30;31.90;52.30
55135;DHT22;41031;44.750;11.308;2022-07-06T09:17:57;32.00;52.00
55135;DHT22;41031;44.750;11.308;2022-07-06T09:20:25;32.10;51.40
55135;DHT22;41031;44.750;11.308;2022-07-06T09:23:01;32.20;51.60
55135;DHT22;41031;44.750;11.308;2022-07-06T09:25:29;32.40;51.70
55135;DHT22;41031;44.750;11.308;2022-07-06T09:27:58;32.60;50.90
55135;DHT22;41031;44.750;11.308;2022-07-06T09:30:27;32.80;49.10
55135;DHT22;41031;44.750;11.308;2022-07-06T09:32:57;32.90;49.30
55135;DHT22;41031;44.750;11.308;2022-07-06T09:35:28;33.10;48.70
55135;DHT22;41031;44.750;11.308;2022-07-06T09:38:09;33.20;47.80
55135;DHT22;41031;44.750;11.308;2022-07-06T09:40:40;33.40;47.00
55135;DHT22;41031;44.750;11.308;2022-07-06T09:45:45;33.80;46.50
55135;DHT22;41031;44.750;11.308;2022-07-06T09:48:15;34.00;45.80
55135;DHT22;41031;44.750;11.308;2022-07-06T09:50:48;34.20;45.50
55135;DHT22;41031;44.750;11.308;2022-07-06T09:53:15;34.30;45.90
55135;DHT22;41031;44.750;11.308;2022-07-06T09:55:50;34.50;46.00
55135;DHT22;41031;44.750;11.308;2022-07-06T09:58:19;34.60;44.00
55135;DHT22;41031;44.750;11.308;2022-07-06T10:01:06;34.60;43.70
55135;DHT22;41031;44.750;11.308;2022-07-06T10:03:36;34.40;45.40
55135;DHT22;41031;44.750;11.308;2022-07-06T10:06:05;34.40;45.90
55135;DHT22;41031;44.750;11.308;2022-07-06T10:08:33;34.40;44.90
55135;DHT22;41031;44.750;11.308;2022-07-06T10:11:02;34.30;45.60
55135;DHT22;41031;44.750;11.308;2022-07-06T10:13:30;34.40;47.00
55135;DHT22;41031;44.750;11.308;2022-07-06T10:15:59;34.60;46.50
55135;DHT22;41031;44.750;11.308;2022-07-06T10:18:27;34.70;45.40
55135;DHT22;41031;44.750;11.308;2022-07-06T10:20:55;34.80;45.30
55135;DHT22;41031;44.750;11.308;2022-07-06T10:23:23;35.00;45.90
55135;DHT22;41031;44.750;11.308;2022-07-06T10:25:52;35.10;45.50
55135;DHT22;41031;44.750;11.308;2022-07-06T10:28:20;35.20;44.80
55135;DHT22;41031;44.750;11.308;2022-07-06T10:30:49;35.30;44.80
55135;DHT22;41031;44.750;11.308;2022-07-06T10:33:17;35.40;44.70
55135;DHT22;41031;44.750;11.308;2022-07-06T10:35:52;35.50;42.60
55135;DHT22;41031;44.750;11.308;2022-07-06T10:38:19;35.50;43.90
55135;DHT22;41031;44.750;11.308;2022-07-06T10:40:46;35.50;43.80
55135;DHT22;41031;44.750;11.308;2022-07-06T10:43:37;35.60;43.50
55135;DHT22;41031;44.750;11.308;2022-07-06T10:46:07;35.70;42.70
55135;DHT22;41031;44.750;11.308;2022-07-06T10:48:39;35.60;41.90
55135;DHT22;41031;44.750;11.308;2022-07-06T10:51:08;35.50;43.30
55135;DHT22;41031;44.750;11.308;2022-07-06T10:53:40;35.50;43.00
55135;DHT22;41031;44.750;11.308;2022-07-06T10:56:11;35.60;41.60
55135;DHT22;41031;44.750;11.308;2022-07-06T10:58:50;35.50;41.20
55135;DHT22;41031;44.750;11.308;2022-07-06T11:01:20;35.30;42.60
55135;DHT22;41031;44.750;11.308;2022-07-06T11:04:06;35.30;42.50
55135;DHT22;41031;44.750;11.308;2022-07-06T11:06:39;35.40;42.20
55135;DHT22;41031;44.750;11.308;2022-07-06T11:09:08;35.50;40.50
55135;DHT22;41031;44.750;11.308;2022-07-06T11:11:37;35.60;40.90
55135;DHT22;41031;44.750;11.308;2022-07-06T11:14:06;35.70;41.60
55135;DHT22;41031;44.750;11.308;2022-07-06T11:16:37;35.90;40.70
55135;DHT22;41031;44.750;11.308;2022-07-06T11:19:10;36.00;40.70
55135;DHT22;41031;44.750;11.308;2022-07-06T11:21:50;36.00;41.50
55135;DHT22;41031;44.750;11.308;2022-07-06T11:24:24;36.00;39.50
55135;DHT22;41031;44.750;11.308;2022-07-06T11:26:52;35.50;40.60
55135;DHT22;41031;44.750;11.308;2022-07-06T11:29:22;35.20;41.30
55135;DHT22;41031;44.750;11.308;2022-07-06T11:31:52;34.90;41.40
55135;DHT22;41031;44.750;11.308;2022-07-06T11:34:23;34.60;42.00
55135;DHT22;41031;44.750;11.308;2022-07-06T11:37:04;34.60;42.80
55135;DHT22;41031;44.750;11.308;2022-07-06T11:39:33;34.60;41.80
55135;DHT22;41031;44.750;11.308;2022-07-06T11:42:01;34.50;41.90
55135;DHT22;41031;44.750;11.308;2022-07-06T11:44:31;34.50;41.90
55135;DHT22;41031;44.750;11.308;2022-07-06T11:46:59;34.50;42.50
55135;DHT22;41031;44.750;11.308;2022-07-06T11:49:30;34.60;42.80
55135;DHT22;41031;44.750;11.308;2022-07-06T11:51:58;34.80;42.20
55135;DHT22;41031;44.750;11.308;2022-07-06T11:54:26;35.10;41.60
55135;DHT22;41031;44.750;11.308;2022-07-06T11:56:55;35.10;41.10
55135;DHT22;41031;44.750;11.308;2022-07-06T11:59:25;35.10;41.50
55135;DHT22;41031;44.750;11.308;2022-07-06T12:02:07;35.00;41.10
55135;DHT22;41031;44.750;11.308;2022-07-06T12:04:45;34.80;41.40
55135;DHT22;41031;44.750;11.308;2022-07-06T12:07:15;34.60;41.60
55135;DHT22;41031;44.750;11.308;2022-07-06T12:09:44;34.60;41.30
55135;DHT22;41031;44.750;11.308;2022-07-06T12:12:12;34.60;40.40
55135;DHT22;41031;44.750;11.308;2022-07-06T12:14:41;34.70;40.30
55135;DHT22;41031;44.750;11.308;2022-07-06T12:17:10;34.70;40.70
55135;DHT22;41031;44.750;11.308;2022-07-06T12:19:38;34.70;39.40
55135;DHT22;41031;44.750;11.308;2022-07-06T12:22:06;34.70;39.60
55135;DHT22;41031;44.750;11.308;2022-07-06T12:24:35;34.70;40.50
55135;DHT22;41031;44.750;11.308;2022-07-06T12:29:40;34.70;41.30
55135;DHT22;41031;44.750;11.308;2022-07-06T12:32:17;34.70;39.70
55135;DHT22;41031;44.750;11.308;2022-07-06T12:34:45;34.60;39.70
55135;DHT22;41031;44.750;11.308;2022-07-06T12:37:13;34.60;40.50
55135;DHT22;41031;44.750;11.308;2022-07-06T12:39:45;34.70;40.80
55135;DHT22;41031;44.750;11.308;2022-07-06T12:42:17;34.80;40.30
55135;DHT22;41031;44.750;11.308;2022-07-06T12:44:48;35.00;39.20
55135;DHT22;41031;44.750;11.308;2022-07-06T12:47:21;35.10;38.80
55135;DHT22;41031;44.750;11.308;2022-07-06T12:50:10;35.30;39.20
55135;DHT22;41031;44.750;11.308;2022-07-06T12:52:38;35.40;38.10
55135;DHT22;41031;44.750;11.308;2022-07-06T12:55:07;35.50;38.20
55135;DHT22;41031;44.750;11.308;2022-07-06T12:57:47;35.50;38.10
55135;DHT22;41031;44.750;11.308;2022-07-06T13:00:15;35.70;37.30
55135;DHT22;41031;44.750;11.308;2022-07-06T13:02:51;35.80;37.40
55135;DHT22;41031;44.750;11.308;2022-07-06T13:05:37;35.90;37.20
55135;DHT22;41031;44.750;11.308;2022-07-06T13:08:06;35.90;37.50
55135;DHT22;41031;44.750;11.308;2022-07-06T13:10:33;36.00;37.40
55135;DHT22;41031;44.750;11.308;2022-07-06T13:13:03;36.00;37.90
55135;DHT22;41031;44.750;11.308;2022-07-06T13:15:30;36.00;36.60
55135;DHT22;41031;44.750;11.308;2022-07-06T13:17:57;36.00;37.20
55135;DHT22;41031;44.750;11.308;2022-07-06T13:20:24;35.90;37.30
55135;DHT22;41031;44.750;11.308;2022-07-06T13:22:51;35.70;36.40
55135;DHT22;41031;44.750;11.308;2022-07-06T13:25:18;35.50;37.10
55135;DHT22;41031;44.750;11.308;2022-07-06T13:27:46;35.40;37.20
55135;DHT22;41031;44.750;11.308;2022-07-06T13:30:14;35.20;37.80
55135;DHT22;41031;44.750;11.308;2022-07-06T13:32:42;35.20;37.90
55135;DHT22;41031;44.750;11.308;2022-07-06T13:35:10;35.20;38.20
55135;DHT22;41031;44.750;11.308;2022-07-06T13:37:37;35.20;37.40
55135;DHT22;41031;44.750;11.308;2022-07-06T13:40:05;35.30;37.30
55135;DHT22;41031;44.750;11.308;2022-07-06T13:42:34;35.40;37.00
55135;DHT22;41031;44.750;11.308;2022-07-06T13:45:03;35.40;37.20
55135;DHT22;41031;44.750;11.308;2022-07-06T13:47:30;35.40;37.30
55135;DHT22;41031;44.750;11.308;2022-07-06T13:49:58;35.40;37.10
55135;DHT22;41031;44.750;11.308;2022-07-06T13:52:26;35.20;37.10
55135;DHT22;41031;44.750;11.308;2022-07-06T13:54:53;35.20;37.20
55135;DHT22;41031;44.750;11.308;2022-07-06T13:57:27;35.10;37.50
55135;DHT22;41031;44.750;11.308;2022-07-06T13:59:55;35.10;37.40
55135;DHT22;41031;44.750;11.308;2022-07-06T14:02:22;35.10;37.90
55135;DHT22;41031;44.750;11.308;2022-07-06T14:04:50;35.10;36.90
55135;DHT22;41031;44.750;11.308;2022-07-06T14:07:17;35.00;37.20
55135;DHT22;41031;44.750;11.308;2022-07-06T14:09:46;35.00;37.30
55135;DHT22;41031;44.750;11.308;2022-07-06T14:12:19;35.00;37.40
55135;DHT22;41031;44.750;11.308;2022-07-06T14:14:49;35.10;37.50
55135;DHT22;41031;44.750;11.308;2022-07-06T14:17:17;35.10;37.70
55135;DHT22;41031;44.750;11.308;2022-07-06T14:19:45;35.20;37.20
55135;DHT22;41031;44.750;11.308;2022-07-06T14:22:12;35.20;37.90
55135;DHT22;41031;44.750;11.308;2022-07-06T14:24:39;35.30;37.50
55135;DHT22;41031;44.750;11.308;2022-07-06T14:27:07;35.30;37.30
55135;DHT22;41031;44.750;11.308;2022-07-06T14:29:34;35.30;37.40
55135;DHT22;41031;44.750;11.308;2022-07-06T14:32:02;35.20;37.50
55135;DHT22;41031;44.750;11.308;2022-07-06T14:34:30;35.20;37.50
55135;DHT22;41031;44.750;11.308;2022-07-06T14:36:57;35.20;37.70
55135;DHT22;41031;44.750;11.308;2022-07-06T14:39:24;35.20;38.00
55135;DHT22;41031;44.750;11.308;2022-07-06T14:41:51;35.30;37.70
55135;DHT22;41031;44.750;11.308;2022-07-06T14:44:18;35.10;38.20
55135;DHT22;41031;44.750;11.308;2022-07-06T14:46:45;35.10;38.00
55135;DHT22;41031;44.750;11.308;2022-07-06T14:49:13;35.00;38.20
55135;DHT22;41031;44.750;11.308;2022-07-06T14:51:46;34.90;37.70
55135;DHT22;41031;44.750;11.308;2022-07-06T14:54:14;34.80;37.90
55135;DHT22;41031;44.750;11.308;2022-07-06T14:56:42;34.70;38.30
55135;DHT22;41031;44.750;11.308;2022-07-06T14:59:09;34.60;38.60
55135;DHT22;41031;44.750;11.308;2022-07-06T15:01:51;34.50;38.80
55135;DHT22;41031;44.750;11.308;2022-07-06T15:04:18;34.40;38.80
55135;DHT22;41031;44.750;11.308;2022-07-06T15:06:46;34.20;38.80
55135;DHT22;41031;44.750;11.308;2022-07-06T15:09:23;34.10;39.20
55135;DHT22;41031;44.750;11.308;2022-07-06T15:11:53;34.10;39.50
55135;DHT22;41031;44.750;11.308;2022-07-06T15:14:20;34.00;39.30
55135;DHT22;41031;44.750;11.308;2022-07-06T15:16:47;34.00;39.30
55135;DHT22;41031;44.750;11.308;2022-07-06T15:19:15;33.90;39.10
55135;DHT22;41031;44.750;11.308;2022-07-06T15:21:42;33.90;39.50
55135;DHT22;41031;44.750;11.308;2022-07-06T15:24:10;33.80;39.60
55135;DHT22;41031;44.750;11.308;2022-07-06T15:26:37;33.80;39.70
55135;DHT22;41031;44.750;11.308;2022-07-06T15:29:04;33.70;39.60
55135;DHT22;41031;44.750;11.308;2022-07-06T15:31:31;33.70;39.60
55135;DHT22;41031;44.750;11.308;2022-07-06T15:33:59;33.60;39.90
55135;DHT22;41031;44.750;11.308;2022-07-06T15:36:26;33.50;40.50